sensor_id;sensor_type;location;lat;lon;timestamp;P1;durP1;ratioP1;P2;durP2;ratioP2
47617;SDS011;33336;36.728;-4.414;2023-08-08T00:01:56;22.17;;;4.45;;
47617;SDS011;33336;36.728;-4.414;2023-08-08T00:06:59;22.80;;;4.68;;
47617;SDS011;33336;36.728;-4.414;2023-08-08T00:12:07;21.77;;;4.97;;
47617;SDS011;33336;36.728;-4.414;2023-08-08T00:17:10;25.27;;;4.65;;
47617;SDS011;33336;36.728;-4.414;2023-08-08T00:22:13;22.20;;;5.30;;
47617;SDS011;33336;36.728;-4.414;2023-08-08T00:27:17;19.05;;;4.72;;
47617;SDS011;33336;36.728;-4.414;2023-08-08T00:32:21;25.98;;;5.07;;
47617;SDS011;33336;36.728;-4.414;2023-08-08T00:37:24;23.20;;;5.28;;
47617;SDS011;33336;36.728;-4.414;2023-08-08T00:42:28;24.35;;;5.65;;
47617;SDS011;33336;36.728;-4.414;2023-08-08T00:47:31;23.75;;;4.80;;
47617;SDS011;33336;36.728;-4.414;2023-08-08T00:52:35;26.30;;;5.95;;
47617;SDS011;33336;36.728;-4.414;2023-08-08T00:57:41;26.20;;;5.20;;
47617;SDS011;33336;36.728;-4.414;2023-08-08T01:02:44;26.25;;;5.40;;
47617;SDS011;33336;36.728;-4.414;2023-08-08T01:07:47;27.65;;;5.38;;
47617;SDS011;33336;36.728;-4.414;2023-08-08T01:12:59;24.80;;;4.90;;
47617;SDS011;33336;36.728;-4.414;2023-08-08T01:18:04;23.52;;;5.00;;
47617;SDS011;33336;36.728;-4.414;2023-08-08T01:23:10;22.52;;;5.53;;
47617;SDS011;33336;36.728;-4.414;2023-08-08T01:28:22;20.80;;;4.50;;
47617;SDS011;33336;36.728;-4.414;2023-08-08T01:33:25;26.23;;;5.57;;
47617;SDS011;33336;36.728;-4.414;2023-08-08T01:38:30;28.35;;;5.47;;
47617;SDS011;33336;36.728;-4.414;2023-08-08T01:43:38;29.00;;;5.38;;
47617;SDS011;33336;36.728;-4.414;2023-08-08T01:48:44;31.70;;;6.22;;
47617;SDS011;33336;36.728;-4.414;2023-08-08T01:53:48;21.27;;;5.22;;
47617;SDS011;33336;36.728;-4.414;2023-08-08T01:58:53;30.08;;;5.75;;
47617;SDS011;33336;36.728;-4.414;2023-08-08T02:03:56;29.02;;;5.55;;
47617;SDS011;33336;36.728;-4.414;2023-08-08T02:08:59;34.20;;;6.93;;
47617;SDS011;33336;36.728;-4.414;2023-08-08T02:14:03;25.83;;;5.10;;
47617;SDS011;33336;36.728;-4.414;2023-08-08T02:19:07;32.95;;;5.65;;
47617;SDS011;33336;36.728;-4.414;2023-08-08T02:24:11;31.50;;;6.10;;
47617;SDS011;33336;36.728;-4.414;2023-08-08T02:29:15;27.20;;;6.00;;
47617;SDS011;33336;36.728;-4.414;2023-08-08T02:34:19;24.80;;;4.85;;
47617;SDS011;33336;36.728;-4.414;2023-08-08T02:39:22;24.42;;;4.82;;
47617;SDS011;33336;36.728;-4.414;2023-08-08T02:44:27;22.90;;;4.70;;
47617;SDS011;33336;36.728;-4.414;2023-08-08T02:49:30;29.98;;;5.97;;
47617;SDS011;33336;36.728;-4.414;2023-08-08T02:54:34;30.73;;;4.75;;
47617;SDS011;33336;36.728;-4.414;2023-08-08T02:59:38;23.08;;;5.28;;
47617;SDS011;33336;36.728;-4.414;2023-08-08T03:04:42;24.02;;;5.30;;
47617;SDS011;33336;36.728;-4.414;2023-08-08T03:09:45;32.38;;;5.85;;
47617;SDS011;33336;36.728;-4.414;2023-08-08T03:14:50;28.52;;;5.50;;
47617;SDS011;33336;36.728;-4.414;2023-08-08T03:19:52;26.08;;;6.18;;
47617;SDS011;33336;36.728;-4.414;2023-08-08T03:24:56;29.92;;;6.30;;
47617;SDS011;33336;36.728;-4.414;2023-08-08T03:30:00;24.95;;;4.90;;
47617;SDS011;33336;36.728;-4.414;2023-08-08T03:35:04;22.77;;;6.22;;
47617;SDS011;33336;36.728;-4.414;2023-08-08T03:40:09;27.45;;;4.97;;
47617;SDS011;33336;36.728;-4.414;2023-08-08T03:45:14;24.55;;;5.47;;
47617;SDS011;33336;36.728;-4.414;2023-08-08T03:50:17;20.95;;;5.03;;
47617;SDS011;33336;36.728;-4.414;2023-08-08T03:55:21;29.33;;;6.00;;
47617;SDS011;33336;36.728;-4.414;2023-08-08T04:00:25;30.52;;;5.97;;
47617;SDS011;33336;36.728;-4.414;2023-08-08T04:05:28;22.80;;;5.13;;
47617;SDS011;33336;36.728;-4.414;2023-08-08T04:10:31;29.17;;;5.25;;
47617;SDS011;33336;36.728;-4.414;2023-08-08T04:15:35;30.52;;;5.68;;
47617;SDS011;33336;36.728;-4.414;2023-08-08T04:20:38;25.63;;;5.50;;
47617;SDS011;33336;36.728;-4.414;2023-08-08T04:25:42;24.60;;;5.43;;
47617;SDS011;33336;36.728;-4.414;2023-08-08T04:30:46;26.65;;;5.95;;
47617;SDS011;33336;36.728;-4.414;2023-08-08T04:35:50;24.40;;;5.13;;
47617;SDS011;33336;36.728;-4.414;2023-08-08T04:40:53;32.30;;;5.75;;
47617;SDS011;33336;36.728;-4.414;2023-08-08T04:45:57;26.35;;;5.43;;
47617;SDS011;33336;36.728;-4.414;2023-08-08T04:51:00;26.75;;;5.85;;
47617;SDS011;33336;36.728;-4.414;2023-08-08T04:56:03;28.23;;;6.97;;
47617;SDS011;33336;36.728;-4.414;2023-08-08T05:01:07;28.02;;;6.13;;
47617;SDS011;33336;36.728;-4.414;2023-08-08T05:06:15;33.88;;;7.00;;
47617;SDS011;33336;36.728;-4.414;2023-08-08T05:11:18;37.05;;;6.28;;
47617;SDS011;33336;36.728;-4.414;2023-08-08T05:16:22;29.77;;;5.55;;
47617;SDS011;33336;36.728;-4.414;2023-08-08T05:21:25;28.92;;;5.28;;
47617;SDS011;33336;36.728;-4.414;2023-08-08T05:26:29;21.95;;;6.38;;
47617;SDS011;33336;36.728;-4.414;2023-08-08T05:31:33;24.50;;;5.40;;
47617;SDS011;33336;36.728;-4.414;2023-08-08T05:36:37;23.02;;;6.22;;
47617;SDS011;33336;36.728;-4.414;2023-08-08T05:41:40;25.45;;;4.97;;
47617;SDS011;33336;36.728;-4.414;2023-08-08T05:46:44;22.05;;;5.13;;
47617;SDS011;33336;36.728;-4.414;2023-08-08T05:51:47;35.17;;;6.88;;
47617;SDS011;33336;36.728;-4.414;2023-08-08T05:56:50;26.90;;;5.20;;
47617;SDS011;33336;36.728;-4.414;2023-08-08T06:01:54;20.13;;;4.40;;
47617;SDS011;33336;36.728;-4.414;2023-08-08T06:06:58;25.33;;;5.10;;
47617;SDS011;33336;36.728;-4.414;2023-08-08T06:12:01;23.65;;;4.25;;
47617;SDS011;33336;36.728;-4.414;2023-08-08T06:17:05;19.63;;;4.95;;
47617;SDS011;33336;36.728;-4.414;2023-08-08T06:22:08;21.35;;;4.80;;
47617;SDS011;33336;36.728;-4.414;2023-08-08T06:27:13;28.13;;;4.78;;
47617;SDS011;33336;36.728;-4.414;2023-08-08T06:32:17;25.20;;;5.22;;
47617;SDS011;33336;36.728;-4.414;2023-08-08T06:37:21;17.77;;;4.43;;
47617;SDS011;33336;36.728;-4.414;2023-08-08T06:42:24;17.00;;;4.28;;
47617;SDS011;33336;36.728;-4.414;2023-08-08T06:47:28;18.55;;;4.88;;
47617;SDS011;33336;36.728;-4.414;2023-08-08T06:52:31;24.27;;;5.25;;
47617;SDS011;33336;36.728;-4.414;2023-08-08T06:57:35;22.75;;;5.47;;
47617;SDS011;33336;36.728;-4.414;2023-08-08T07:02:39;15.70;;;3.67;;
47617;SDS011;33336;36.728;-4.414;2023-08-08T07:07:42;21.92;;;5.15;;
47617;SDS011;33336;36.728;-4.414;2023-08-08T07:12:45;26.48;;;4.35;;
47617;SDS011;33336;36.728;-4.414;2023-08-08T07:17:51;18.40;;;4.05;;
47617;SDS011;33336;36.728;-4.414;2023-08-08T07:22:54;23.10;;;5.32;;
47617;SDS011;33336;36.728;-4.414;2023-08-08T07:27:58;21.80;;;4.55;;
47617;SDS011;33336;36.728;-4.414;2023-08-08T07:33:02;17.27;;;4.25;;
47617;SDS011;33336;36.728;-4.414;2023-08-08T07:38:05;17.38;;;4.63;;
47617;SDS011;33336;36.728;-4.414;2023-08-08T07:43:08;24.83;;;4.78;;
47617;SDS011;33336;36.728;-4.414;2023-08-08T07:48:12;18.65;;;4.60;;
47617;SDS011;33336;36.728;-4.414;2023-08-08T07:53:16;16.73;;;4.22;;
47617;SDS011;33336;36.728;-4.414;2023-08-08T07:58:19;16.77;;;5.53;;
47617;SDS011;33336;36.728;-4.414;2023-08-08T08:03:25;15.75;;;4.32;;
47617;SDS011;33336;36.728;-4.414;2023-08-08T08:08:29;16.48;;;3.67;;
47617;SDS011;33336;36.728;-4.414;2023-08-08T08:13:31;16.70;;;3.97;;
47617;SDS011;33336;36.728;-4.414;2023-08-08T08:18:36;20.15;;;4.53;;
47617;SDS011;33336;36.728;-4.414;2023-08-08T08:23:39;14.93;;;3.13;;
47617;SDS011;33336;36.728;-4.414;2023-08-08T08:28:42;19.67;;;4.57;;
47617;SDS011;33336;36.728;-4.414;2023-08-08T08:33:46;20.00;;;4.25;;
47617;SDS011;33336;36.728;-4.414;2023-08-08T08:38:49;26.23;;;5.70;;
47617;SDS011;33336;36.728;-4.414;2023-08-08T08:43:52;22.35;;;5.03;;
47617;SDS011;33336;36.728;-4.414;2023-08-08T08:48:58;13.38;;;3.67;;
47617;SDS011;33336;36.728;-4.414;2023-08-08T08:54:02;27.25;;;4.68;;
47617;SDS011;33336;36.728;-4.414;2023-08-08T08:59:05;20.65;;;5.10;;
47617;SDS011;33336;36.728;-4.414;2023-08-08T09:04:11;16.88;;;4.03;;
47617;SDS011;33336;36.728;-4.414;2023-08-08T09:09:17;18.83;;;4.65;;
47617;SDS011;33336;36.728;-4.414;2023-08-08T09:14:23;16.13;;;3.95;;
47617;SDS011;33336;36.728;-4.414;2023-08-08T09:19:29;20.40;;;5.13;;
47617;SDS011;33336;36.728;-4.414;2023-08-08T09:24:32;17.05;;;3.75;;
47617;SDS011;33336;36.728;-4.414;2023-08-08T09:29:35;14.10;;;4.20;;
47617;SDS011;33336;36.728;-4.414;2023-08-08T09:34:41;23.00;;;5.15;;
47617;SDS011;33336;36.728;-4.414;2023-08-08T09:44:48;11.98;;;3.10;;
47617;SDS011;33336;36.728;-4.414;2023-08-08T09:49:53;13.23;;;3.53;;
47617;SDS011;33336;36.728;-4.414;2023-08-08T09:54:58;11.68;;;3.70;;
47617;SDS011;33336;36.728;-4.414;2023-08-08T10:00:01;19.70;;;4.30;;
47617;SDS011;33336;36.728;-4.414;2023-08-08T10:05:08;16.48;;;3.72;;
47617;SDS011;33336;36.728;-4.414;2023-08-08T10:10:14;17.60;;;3.72;;
47617;SDS011;33336;36.728;-4.414;2023-08-08T10:15:24;17.90;;;4.07;;
47617;SDS011;33336;36.728;-4.414;2023-08-08T10:20:30;18.02;;;3.08;;
47617;SDS011;33336;36.728;-4.414;2023-08-08T10:30:43;16.52;;;3.50;;
47617;SDS011;33336;36.728;-4.414;2023-08-08T10:35:56;17.60;;;3.50;;
47617;SDS011;33336;36.728;-4.414;2023-08-08T10:41:02;14.20;;;4.68;;
47617;SDS011;33336;36.728;-4.414;2023-08-08T10:46:05;16.15;;;3.75;;
47617;SDS011;33336;36.728;-4.414;2023-08-08T10:51:10;14.70;;;3.90;;
47617;SDS011;33336;36.728;-4.414;2023-08-08T10:56:17;14.25;;;3.50;;
47617;SDS011;33336;36.728;-4.414;2023-08-08T11:01:22;24.17;;;4.25;;
47617;SDS011;33336;36.728;-4.414;2023-08-08T11:06:29;18.20;;;3.97;;
47617;SDS011;33336;36.728;-4.414;2023-08-08T11:11:35;15.10;;;4.03;;
47617;SDS011;33336;36.728;-4.414;2023-08-08T11:16:40;13.15;;;3.33;;
47617;SDS011;33336;36.728;-4.414;2023-08-08T11:21:45;16.35;;;4.40;;
47617;SDS011;33336;36.728;-4.414;2023-08-08T11:26:49;22.92;;;5.22;;
47617;SDS011;33336;36.728;-4.414;2023-08-08T11:31:53;18.33;;;4.07;;
47617;SDS011;33336;36.728;-4.414;2023-08-08T11:36:57;19.45;;;5.38;;
47617;SDS011;33336;36.728;-4.414;2023-08-08T11:42:01;23.00;;;4.57;;
47617;SDS011;33336;36.728;-4.414;2023-08-08T11:47:05;20.38;;;4.53;;
47617;SDS011;33336;36.728;-4.414;2023-08-08T11:52:11;16.52;;;4.30;;
47617;SDS011;33336;36.728;-4.414;2023-08-08T11:57:14;16.42;;;3.90;;
47617;SDS011;33336;36.728;-4.414;2023-08-08T12:02:17;21.90;;;4.78;;
47617;SDS011;33336;36.728;-4.414;2023-08-08T12:07:21;16.58;;;4.32;;
47617;SDS011;33336;36.728;-4.414;2023-08-08T12:12:25;22.20;;;6.13;;
47617;SDS011;33336;36.728;-4.414;2023-08-08T12:17:29;11.98;;;3.88;;
47617;SDS011;33336;36.728;-4.414;2023-08-08T12:22:34;20.15;;;4.30;;
47617;SDS011;33336;36.728;-4.414;2023-08-08T12:27:38;16.75;;;5.05;;
47617;SDS011;33336;36.728;-4.414;2023-08-08T12:32:41;17.63;;;4.65;;
47617;SDS011;33336;36.728;-4.414;2023-08-08T12:37:46;9.63;;;3.65;;
47617;SDS011;33336;36.728;-4.414;2023-08-08T12:42:49;18.42;;;3.80;;
47617;SDS011;33336;36.728;-4.414;2023-08-08T12:47:53;19.13;;;4.90;;
47617;SDS011;33336;36.728;-4.414;2023-08-08T12:52:57;19.05;;;5.03;;
47617;SDS011;33336;36.728;-4.414;2023-08-08T12:58:01;15.38;;;4.38;;
47617;SDS011;33336;36.728;-4.414;2023-08-08T13:03:04;17.70;;;4.03;;
47617;SDS011;33336;36.728;-4.414;2023-08-08T13:08:10;12.35;;;3.92;;
47617;SDS011;33336;36.728;-4.414;2023-08-08T13:13:14;16.08;;;4.40;;
47617;SDS011;33336;36.728;-4.414;2023-08-08T13:18:17;19.40;;;5.07;;
47617;SDS011;33336;36.728;-4.414;2023-08-08T13:23:21;20.10;;;4.65;;
47617;SDS011;33336;36.728;-4.414;2023-08-08T13:28:25;18.77;;;3.92;;
47617;SDS011;33336;36.728;-4.414;2023-08-08T13:33:28;12.32;;;4.22;;
47617;SDS011;33336;36.728;-4.414;2023-08-08T13:38:32;18.58;;;4.32;;
47617;SDS011;33336;36.728;-4.414;2023-08-08T13:43:36;12.57;;;3.60;;
47617;SDS011;33336;36.728;-4.414;2023-08-08T13:48:39;14.18;;;3.33;;
47617;SDS011;33336;36.728;-4.414;2023-08-08T13:53:43;12.63;;;3.55;;
47617;SDS011;33336;36.728;-4.414;2023-08-08T13:58:47;15.40;;;4.07;;
47617;SDS011;33336;36.728;-4.414;2023-08-08T14:03:50;15.68;;;4.00;;
47617;SDS011;33336;36.728;-4.414;2023-08-08T14:08:56;14.63;;;4.10;;
47617;SDS011;33336;36.728;-4.414;2023-08-08T14:13:59;17.27;;;3.90;;
47617;SDS011;33336;36.728;-4.414;2023-08-08T14:19:02;14.20;;;3.47;;
47617;SDS011;33336;36.728;-4.414;2023-08-08T14:24:07;15.95;;;4.53;;
47617;SDS011;33336;36.728;-4.414;2023-08-08T14:29:10;19.23;;;4.50;;
47617;SDS011;33336;36.728;-4.414;2023-08-08T14:34:15;17.88;;;3.95;;
47617;SDS011;33336;36.728;-4.414;2023-08-08T14:39:19;14.75;;;3.47;;
47617;SDS011;33336;36.728;-4.414;2023-08-08T14:44:23;16.38;;;4.32;;
47617;SDS011;33336;36.728;-4.414;2023-08-08T14:49:26;15.40;;;3.47;;
47617;SDS011;33336;36.728;-4.414;2023-08-08T14:54:30;17.05;;;3.72;;
47617;SDS011;33336;36.728;-4.414;2023-08-08T14:59:33;10.95;;;2.75;;
47617;SDS011;33336;36.728;-4.414;2023-08-08T15:04:36;14.05;;;3.08;;
47617;SDS011;33336;36.728;-4.414;2023-08-08T15:09:40;19.27;;;4.00;;
47617;SDS011;33336;36.728;-4.414;2023-08-08T15:14:44;12.93;;;3.10;;
47617;SDS011;33336;36.728;-4.414;2023-08-08T15:19:47;20.88;;;4.07;;
47617;SDS011;33336;36.728;-4.414;2023-08-08T15:24:51;13.65;;;3.38;;
47617;SDS011;33336;36.728;-4.414;2023-08-08T15:29:54;11.40;;;2.63;;
47617;SDS011;33336;36.728;-4.414;2023-08-08T15:34:58;14.38;;;3.85;;
47617;SDS011;33336;36.728;-4.414;2023-08-08T15:40:02;13.38;;;3.17;;
47617;SDS011;33336;36.728;-4.414;2023-08-08T15:45:07;13.52;;;3.13;;
47617;SDS011;33336;36.728;-4.414;2023-08-08T15:50:11;11.50;;;3.40;;
47617;SDS011;33336;36.728;-4.414;2023-08-08T15:55:16;18.13;;;3.95;;
47617;SDS011;33336;36.728;-4.414;2023-08-08T16:00:19;14.68;;;2.97;;
47617;SDS011;33336;36.728;-4.414;2023-08-08T16:05:23;12.30;;;3.53;;
47617;SDS011;33336;36.728;-4.414;2023-08-08T16:10:27;11.23;;;3.28;;
47617;SDS011;33336;36.728;-4.414;2023-08-08T16:15:31;14.07;;;3.30;;
47617;SDS011;33336;36.728;-4.414;2023-08-08T16:20:33;14.68;;;3.05;;
47617;SDS011;33336;36.728;-4.414;2023-08-08T16:25:38;13.40;;;3.75;;
47617;SDS011;33336;36.728;-4.414;2023-08-08T16:30:41;14.53;;;3.63;;
47617;SDS011;33336;36.728;-4.414;2023-08-08T16:35:44;18.15;;;4.53;;
47617;SDS011;33336;36.728;-4.414;2023-08-08T16:40:48;12.55;;;3.72;;
47617;SDS011;33336;36.728;-4.414;2023-08-08T16:45:52;13.93;;;3.30;;
47617;SDS011;33336;36.728;-4.414;2023-08-08T16:50:54;9.07;;;3.58;;
47617;SDS011;33336;36.728;-4.414;2023-08-08T16:55:59;13.32;;;3.45;;
47617;SDS011;33336;36.728;-4.414;2023-08-08T17:01:07;9.85;;;2.72;;
47617;SDS011;33336;36.728;-4.414;2023-08-08T17:06:11;10.43;;;2.67;;
47617;SDS011;33336;36.728;-4.414;2023-08-08T17:11:15;14.65;;;3.78;;
47617;SDS011;33336;36.728;-4.414;2023-08-08T17:16:19;12.85;;;2.80;;
47617;SDS011;33336;36.728;-4.414;2023-08-08T17:21:21;12.77;;;3.67;;
47617;SDS011;33336;36.728;-4.414;2023-08-08T17:26:26;12.45;;;2.83;;
47617;SDS011;33336;36.728;-4.414;2023-08-08T17:31:29;11.80;;;3.28;;
47617;SDS011;33336;36.728;-4.414;2023-08-08T17:36:34;11.20;;;2.95;;
47617;SDS011;33336;36.728;-4.414;2023-08-08T17:41:38;15.77;;;3.10;;
47617;SDS011;33336;36.728;-4.414;2023-08-08T17:46:42;9.30;;;3.75;;
47617;SDS011;33336;36.728;-4.414;2023-08-08T17:51:44;13.90;;;3.85;;
47617;SDS011;33336;36.728;-4.414;2023-08-08T17:56:49;14.07;;;3.38;;
47617;SDS011;33336;36.728;-4.414;2023-08-08T18:01:53;13.15;;;3.72;;
47617;SDS011;33336;36.728;-4.414;2023-08-08T18:12:02;11.98;;;3.20;;
47617;SDS011;33336;36.728;-4.414;2023-08-08T18:17:08;12.95;;;3.40;;
47617;SDS011;33336;36.728;-4.414;2023-08-08T18:22:11;23.15;;;4.68;;
47617;SDS011;33336;36.728;-4.414;2023-08-08T18:27:16;15.05;;;3.90;;
47617;SDS011;33336;36.728;-4.414;2023-08-08T18:32:20;14.63;;;3.88;;
47617;SDS011;33336;36.728;-4.414;2023-08-08T18:37:25;12.85;;;3.15;;
47617;SDS011;33336;36.728;-4.414;2023-08-08T18:42:29;10.30;;;3.30;;
47617;SDS011;33336;36.728;-4.414;2023-08-08T18:47:33;13.70;;;2.95;;
47617;SDS011;33336;36.728;-4.414;2023-08-08T18:52:35;19.52;;;3.45;;
47617;SDS011;33336;36.728;-4.414;2023-08-08T18:57:40;13.40;;;3.53;;
47617;SDS011;33336;36.728;-4.414;2023-08-08T19:02:43;16.77;;;4.03;;
47617;SDS011;33336;36.728;-4.414;2023-08-08T19:07:47;13.70;;;2.80;;
47617;SDS011;33336;36.728;-4.414;2023-08-08T19:12:51;16.17;;;3.83;;
47617;SDS011;33336;36.728;-4.414;2023-08-08T19:17:55;17.45;;;3.42;;
47617;SDS011;33336;36.728;-4.414;2023-08-08T19:22:57;13.23;;;3.33;;
47617;SDS011;33336;36.728;-4.414;2023-08-08T19:28:02;13.45;;;3.70;;
47617;SDS011;33336;36.728;-4.414;2023-08-08T19:33:05;18.47;;;4.03;;
47617;SDS011;33336;36.728;-4.414;2023-08-08T19:38:11;19.17;;;4.00;;
47617;SDS011;33336;36.728;-4.414;2023-08-08T19:43:15;14.80;;;3.58;;
47617;SDS011;33336;36.728;-4.414;2023-08-08T19:48:19;15.43;;;4.40;;
47617;SDS011;33336;36.728;-4.414;2023-08-08T19:53:21;15.05;;;4.05;;
47617;SDS011;33336;36.728;-4.414;2023-08-08T19:58:26;16.05;;;4.00;;
47617;SDS011;33336;36.728;-4.414;2023-08-08T20:03:29;11.23;;;3.03;;
47617;SDS011;33336;36.728;-4.414;2023-08-08T20:08:33;17.88;;;4.78;;
47617;SDS011;33336;36.728;-4.414;2023-08-08T20:13:37;10.85;;;3.47;;
47617;SDS011;33336;36.728;-4.414;2023-08-08T20:18:41;17.38;;;4.25;;
47617;SDS011;33336;36.728;-4.414;2023-08-08T20:23:46;21.05;;;3.30;;
47617;SDS011;33336;36.728;-4.414;2023-08-08T20:28:52;17.10;;;3.33;;
47617;SDS011;33336;36.728;-4.414;2023-08-08T20:33:55;20.17;;;4.63;;
47617;SDS011;33336;36.728;-4.414;2023-08-08T20:38:59;17.73;;;4.40;;
47617;SDS011;33336;36.728;-4.414;2023-08-08T20:44:03;14.93;;;3.50;;
47617;SDS011;33336;36.728;-4.414;2023-08-08T20:49:08;18.10;;;4.63;;
47617;SDS011;33336;36.728;-4.414;2023-08-08T20:54:10;13.18;;;3.50;;
47617;SDS011;33336;36.728;-4.414;2023-08-08T20:59:15;19.38;;;4.35;;
47617;SDS011;33336;36.728;-4.414;2023-08-08T21:04:18;16.23;;;4.25;;
47617;SDS011;33336;36.728;-4.414;2023-08-08T21:09:21;22.73;;;4.72;;
47617;SDS011;33336;36.728;-4.414;2023-08-08T21:14:25;20.00;;;4.40;;
47617;SDS011;33336;36.728;-4.414;2023-08-08T21:19:28;16.40;;;4.43;;
47617;SDS011;33336;36.728;-4.414;2023-08-08T21:24:31;14.63;;;4.30;;
47617;SDS011;33336;36.728;-4.414;2023-08-08T21:29:35;21.27;;;4.82;;
47617;SDS011;33336;36.728;-4.414;2023-08-08T21:34:38;23.33;;;5.60;;
47617;SDS011;33336;36.728;-4.414;2023-08-08T21:39:42;17.67;;;4.53;;
47617;SDS011;33336;36.728;-4.414;2023-08-08T21:44:46;19.02;;;3.70;;
47617;SDS011;33336;36.728;-4.414;2023-08-08T21:49:50;19.10;;;4.75;;
47617;SDS011;33336;36.728;-4.414;2023-08-08T21:54:52;15.77;;;4.32;;
47617;SDS011;33336;36.728;-4.414;2023-08-08T21:59:57;12.65;;;3.95;;
47617;SDS011;33336;36.728;-4.414;2023-08-08T22:05:00;20.20;;;4.10;;
47617;SDS011;33336;36.728;-4.414;2023-08-08T22:10:03;21.95;;;4.57;;
47617;SDS011;33336;36.728;-4.414;2023-08-08T22:15:09;19.00;;;4.72;;
47617;SDS011;33336;36.728;-4.414;2023-08-08T22:20:13;17.08;;;4.70;;
47617;SDS011;33336;36.728;-4.414;2023-08-08T22:25:15;15.93;;;5.13;;
47617;SDS011;33336;36.728;-4.414;2023-08-08T22:30:21;18.30;;;4.55;;
47617;SDS011;33336;36.728;-4.414;2023-08-08T22:35:24;20.27;;;4.72;;
47617;SDS011;33336;36.728;-4.414;2023-08-08T22:40:27;20.67;;;4.10;;
47617;SDS011;33336;36.728;-4.414;2023-08-08T22:45:32;17.73;;;4.85;;
47617;SDS011;33336;36.728;-4.414;2023-08-08T22:50:36;13.98;;;4.00;;
47617;SDS011;33336;36.728;-4.414;2023-08-08T22:55:41;14.13;;;4.38;;
47617;SDS011;33336;36.728;-4.414;2023-08-08T23:00:45;18.75;;;4.60;;
47617;SDS011;33336;36.728;-4.414;2023-08-08T23:05:49;17.73;;;4.30;;
47617;SDS011;33336;36.728;-4.414;2023-08-08T23:10:51;16.17;;;4.82;;
47617;SDS011;33336;36.728;-4.414;2023-08-08T23:15:56;18.23;;;4.60;;
47617;SDS011;33336;36.728;-4.414;2023-08-08T23:20:59;14.43;;;3.72;;
47617;SDS011;33336;36.728;-4.414;2023-08-08T23:26:02;12.13;;;3.70;;
47617;SDS011;33336;36.728;-4.414;2023-08-08T23:31:07;11.85;;;4.13;;
47617;SDS011;33336;36.728;-4.414;2023-08-08T23:36:10;16.65;;;3.90;;
47617;SDS011;33336;36.728;-4.414;2023-08-08T23:41:13;14.57;;;4.10;;
47617;SDS011;33336;36.728;-4.414;2023-08-08T23:46:20;20.85;;;4.80;;
47617;SDS011;33336;36.728;-4.414;2023-08-08T23:51:23;18.77;;;4.45;;
47617;SDS011;33336;36.728;-4.414;2023-08-08T23:56:26;18.63;;;4.80;;
